sensor_id;sensor_type;location;lat;lon;timestamp;P1;durP1;ratioP1;P2;durP2;ratioP2
37303;SDS011;23188;51.188;16.374;2023-07-13T00:02:03;10.70;;;6.60;;
37303;SDS011;23188;51.188;16.374;2023-07-13T00:06:07;7.80;;;5.60;;
37303;SDS011;23188;51.188;16.374;2023-07-13T00:10:12;7.40;;;5.50;;
37303;SDS011;23188;51.188;16.374;2023-07-13T00:14:15;7.80;;;5.20;;
37303;SDS011;23188;51.188;16.374;2023-07-13T00:18:19;9.30;;;6.30;;
37303;SDS011;23188;51.188;16.374;2023-07-13T00:22:23;6.40;;;5.60;;
37303;SDS011;23188;51.188;16.374;2023-07-13T00:26:28;8.90;;;6.30;;
37303;SDS011;23188;51.188;16.374;2023-07-13T00:30:32;6.30;;;5.70;;
37303;SDS011;23188;51.188;16.374;2023-07-13T00:34:35;7.60;;;5.80;;
37303;SDS011;23188;51.188;16.374;2023-07-13T00:38:39;6.20;;;5.10;;
37303;SDS011;23188;51.188;16.374;2023-07-13T00:42:43;7.10;;;6.30;;
37303;SDS011;23188;51.188;16.374;2023-07-13T00:46:46;6.70;;;5.90;;
37303;SDS011;23188;51.188;16.374;2023-07-13T00:50:51;7.20;;;6.10;;
37303;SDS011;23188;51.188;16.374;2023-07-13T00:54:56;8.90;;;6.30;;
37303;SDS011;23188;51.188;16.374;2023-07-13T00:59:00;11.40;;;7.30;;
37303;SDS011;23188;51.188;16.374;2023-07-13T01:03:06;6.90;;;6.20;;
37303;SDS011;23188;51.188;16.374;2023-07-13T01:07:10;12.00;;;5.70;;
37303;SDS011;23188;51.188;16.374;2023-07-13T01:11:18;7.30;;;4.40;;
37303;SDS011;23188;51.188;16.374;2023-07-13T01:19:39;6.80;;;5.00;;
37303;SDS011;23188;51.188;16.374;2023-07-13T01:23:45;7.40;;;5.40;;
37303;SDS011;23188;51.188;16.374;2023-07-13T01:27:48;7.40;;;4.40;;
37303;SDS011;23188;51.188;16.374;2023-07-13T01:31:51;5.50;;;4.40;;
37303;SDS011;23188;51.188;16.374;2023-07-13T01:35:54;8.20;;;5.80;;
37303;SDS011;23188;51.188;16.374;2023-07-13T01:40:00;9.20;;;5.80;;
37303;SDS011;23188;51.188;16.374;2023-07-13T01:44:03;7.70;;;5.50;;
37303;SDS011;23188;51.188;16.374;2023-07-13T01:48:07;10.70;;;5.80;;
37303;SDS011;23188;51.188;16.374;2023-07-13T01:52:10;7.00;;;6.10;;
37303;SDS011;23188;51.188;16.374;2023-07-13T01:56:13;6.70;;;4.30;;
37303;SDS011;23188;51.188;16.374;2023-07-13T02:00:16;9.90;;;6.10;;
37303;SDS011;23188;51.188;16.374;2023-07-13T02:04:19;7.40;;;4.70;;
37303;SDS011;23188;51.188;16.374;2023-07-13T02:08:22;6.30;;;4.70;;
37303;SDS011;23188;51.188;16.374;2023-07-13T02:12:26;6.60;;;4.60;;
37303;SDS011;23188;51.188;16.374;2023-07-13T02:16:29;8.00;;;4.20;;
37303;SDS011;23188;51.188;16.374;2023-07-13T02:20:33;8.70;;;6.20;;
37303;SDS011;23188;51.188;16.374;2023-07-13T02:24:36;6.00;;;4.30;;
37303;SDS011;23188;51.188;16.374;2023-07-13T02:28:41;7.40;;;4.00;;
37303;SDS011;23188;51.188;16.374;2023-07-13T02:32:44;7.40;;;5.80;;
37303;SDS011;23188;51.188;16.374;2023-07-13T02:36:47;16.60;;;7.30;;
37303;SDS011;23188;51.188;16.374;2023-07-13T02:40:50;10.00;;;6.30;;
37303;SDS011;23188;51.188;16.374;2023-07-13T02:44:54;7.10;;;6.40;;
37303;SDS011;23188;51.188;16.374;2023-07-13T02:48:57;9.80;;;6.90;;
37303;SDS011;23188;51.188;16.374;2023-07-13T02:53:00;18.60;;;6.40;;
37303;SDS011;23188;51.188;16.374;2023-07-13T02:57:03;11.90;;;5.50;;
37303;SDS011;23188;51.188;16.374;2023-07-13T03:01:08;10.00;;;5.00;;
37303;SDS011;23188;51.188;16.374;2023-07-13T03:05:13;8.50;;;5.20;;
37303;SDS011;23188;51.188;16.374;2023-07-13T03:09:17;12.30;;;5.70;;
37303;SDS011;23188;51.188;16.374;2023-07-13T03:13:21;8.30;;;5.00;;
37303;SDS011;23188;51.188;16.374;2023-07-13T03:17:24;17.90;;;7.50;;
37303;SDS011;23188;51.188;16.374;2023-07-13T03:21:27;18.00;;;8.30;;
37303;SDS011;23188;51.188;16.374;2023-07-13T03:25:30;9.20;;;7.20;;
37303;SDS011;23188;51.188;16.374;2023-07-13T03:29:34;12.50;;;7.80;;
37303;SDS011;23188;51.188;16.374;2023-07-13T03:33:37;7.00;;;6.20;;
37303;SDS011;23188;51.188;16.374;2023-07-13T03:37:41;9.60;;;4.80;;
37303;SDS011;23188;51.188;16.374;2023-07-13T03:41:45;9.40;;;5.80;;
37303;SDS011;23188;51.188;16.374;2023-07-13T03:45:49;7.10;;;5.30;;
37303;SDS011;23188;51.188;16.374;2023-07-13T03:49:52;12.00;;;5.40;;
37303;SDS011;23188;51.188;16.374;2023-07-13T03:53:56;8.00;;;4.50;;
37303;SDS011;23188;51.188;16.374;2023-07-13T03:58:00;6.70;;;3.70;;
37303;SDS011;23188;51.188;16.374;2023-07-13T04:02:24;8.30;;;3.60;;
37303;SDS011;23188;51.188;16.374;2023-07-13T04:06:28;6.60;;;4.20;;
37303;SDS011;23188;51.188;16.374;2023-07-13T04:10:32;12.10;;;4.70;;
37303;SDS011;23188;51.188;16.374;2023-07-13T04:14:35;7.90;;;4.30;;
37303;SDS011;23188;51.188;16.374;2023-07-13T04:18:38;7.20;;;3.20;;
37303;SDS011;23188;51.188;16.374;2023-07-13T04:22:42;3.50;;;3.10;;
37303;SDS011;23188;51.188;16.374;2023-07-13T04:26:50;4.70;;;3.50;;
37303;SDS011;23188;51.188;16.374;2023-07-13T04:30:54;6.90;;;3.30;;
37303;SDS011;23188;51.188;16.374;2023-07-13T04:34:58;6.10;;;3.40;;
37303;SDS011;23188;51.188;16.374;2023-07-13T04:39:02;7.70;;;4.00;;
37303;SDS011;23188;51.188;16.374;2023-07-13T04:43:05;8.40;;;4.40;;
37303;SDS011;23188;51.188;16.374;2023-07-13T04:47:08;8.60;;;4.30;;
37303;SDS011;23188;51.188;16.374;2023-07-13T04:51:11;13.20;;;5.40;;
37303;SDS011;23188;51.188;16.374;2023-07-13T04:55:14;6.90;;;4.10;;
37303;SDS011;23188;51.188;16.374;2023-07-13T04:59:18;5.70;;;3.50;;
37303;SDS011;23188;51.188;16.374;2023-07-13T05:03:21;17.00;;;5.80;;
37303;SDS011;23188;51.188;16.374;2023-07-13T05:07:25;12.10;;;4.40;;
37303;SDS011;23188;51.188;16.374;2023-07-13T05:11:29;9.70;;;4.40;;
37303;SDS011;23188;51.188;16.374;2023-07-13T05:15:32;14.50;;;4.90;;
37303;SDS011;23188;51.188;16.374;2023-07-13T05:19:36;10.80;;;4.40;;
37303;SDS011;23188;51.188;16.374;2023-07-13T05:23:39;11.40;;;3.80;;
37303;SDS011;23188;51.188;16.374;2023-07-13T05:27:44;7.70;;;3.40;;
37303;SDS011;23188;51.188;16.374;2023-07-13T05:31:48;9.90;;;3.40;;
37303;SDS011;23188;51.188;16.374;2023-07-13T05:35:52;19.70;;;4.70;;
37303;SDS011;23188;51.188;16.374;2023-07-13T05:39:55;7.30;;;4.70;;
37303;SDS011;23188;51.188;16.374;2023-07-13T05:43:59;8.60;;;5.80;;
37303;SDS011;23188;51.188;16.374;2023-07-13T05:48:02;6.80;;;4.30;;
37303;SDS011;23188;51.188;16.374;2023-07-13T05:52:05;13.30;;;5.40;;
37303;SDS011;23188;51.188;16.374;2023-07-13T05:56:08;13.30;;;5.80;;
37303;SDS011;23188;51.188;16.374;2023-07-13T06:00:12;10.10;;;5.00;;
37303;SDS011;23188;51.188;16.374;2023-07-13T06:04:15;6.10;;;4.80;;
37303;SDS011;23188;51.188;16.374;2023-07-13T06:08:19;9.10;;;5.20;;
37303;SDS011;23188;51.188;16.374;2023-07-13T06:12:22;9.10;;;5.00;;
37303;SDS011;23188;51.188;16.374;2023-07-13T06:16:25;13.60;;;5.70;;
37303;SDS011;23188;51.188;16.374;2023-07-13T06:20:28;16.10;;;5.70;;
37303;SDS011;23188;51.188;16.374;2023-07-13T06:24:32;12.30;;;5.50;;
37303;SDS011;23188;51.188;16.374;2023-07-13T06:28:35;11.00;;;5.20;;
37303;SDS011;23188;51.188;16.374;2023-07-13T06:32:39;9.60;;;4.50;;
37303;SDS011;23188;51.188;16.374;2023-07-13T06:36:43;7.10;;;4.00;;
37303;SDS011;23188;51.188;16.374;2023-07-13T06:40:46;6.30;;;3.50;;
37303;SDS011;23188;51.188;16.374;2023-07-13T06:44:49;9.60;;;3.70;;
37303;SDS011;23188;51.188;16.374;2023-07-13T06:48:52;6.40;;;3.40;;
37303;SDS011;23188;51.188;16.374;2023-07-13T06:52:55;8.90;;;4.20;;
37303;SDS011;23188;51.188;16.374;2023-07-13T06:56:58;7.10;;;5.00;;
37303;SDS011;23188;51.188;16.374;2023-07-13T07:01:01;6.20;;;4.10;;
37303;SDS011;23188;51.188;16.374;2023-07-13T07:05:04;5.40;;;3.70;;
37303;SDS011;23188;51.188;16.374;2023-07-13T07:09:08;13.00;;;5.20;;
37303;SDS011;23188;51.188;16.374;2023-07-13T07:13:11;7.30;;;4.60;;
37303;SDS011;23188;51.188;16.374;2023-07-13T07:17:14;5.00;;;4.10;;
37303;SDS011;23188;51.188;16.374;2023-07-13T07:21:17;8.10;;;6.00;;
37303;SDS011;23188;51.188;16.374;2023-07-13T07:25:20;7.40;;;4.40;;
37303;SDS011;23188;51.188;16.374;2023-07-13T07:29:23;7.10;;;5.20;;
37303;SDS011;23188;51.188;16.374;2023-07-13T07:33:32;5.10;;;3.90;;
37303;SDS011;23188;51.188;16.374;2023-07-13T07:37:37;4.50;;;4.00;;
37303;SDS011;23188;51.188;16.374;2023-07-13T07:41:43;5.70;;;3.50;;
37303;SDS011;23188;51.188;16.374;2023-07-13T07:45:58;3.60;;;3.10;;
37303;SDS011;23188;51.188;16.374;2023-07-13T07:50:05;5.40;;;2.50;;
37303;SDS011;23188;51.188;16.374;2023-07-13T07:54:08;5.80;;;2.60;;
37303;SDS011;23188;51.188;16.374;2023-07-13T07:58:16;7.60;;;3.00;;
37303;SDS011;23188;51.188;16.374;2023-07-13T08:02:39;3.80;;;3.10;;
37303;SDS011;23188;51.188;16.374;2023-07-13T08:07:04;4.20;;;2.80;;
37303;SDS011;23188;51.188;16.374;2023-07-13T08:11:08;4.30;;;2.10;;
37303;SDS011;23188;51.188;16.374;2023-07-13T08:15:16;3.90;;;2.60;;
37303;SDS011;23188;51.188;16.374;2023-07-13T08:19:19;4.50;;;2.10;;
37303;SDS011;23188;51.188;16.374;2023-07-13T08:23:22;2.80;;;1.90;;
37303;SDS011;23188;51.188;16.374;2023-07-13T08:27:26;3.30;;;2.70;;
37303;SDS011;23188;51.188;16.374;2023-07-13T08:31:30;4.20;;;3.00;;
37303;SDS011;23188;51.188;16.374;2023-07-13T08:35:34;4.10;;;1.90;;
37303;SDS011;23188;51.188;16.374;2023-07-13T08:39:37;4.80;;;2.70;;
37303;SDS011;23188;51.188;16.374;2023-07-13T08:43:41;2.10;;;2.00;;
37303;SDS011;23188;51.188;16.374;2023-07-13T08:47:51;5.50;;;2.30;;
37303;SDS011;23188;51.188;16.374;2023-07-13T08:52:02;5.70;;;2.20;;
37303;SDS011;23188;51.188;16.374;2023-07-13T08:56:23;3.70;;;1.90;;
37303;SDS011;23188;51.188;16.374;2023-07-13T09:00:49;3.50;;;1.70;;
37303;SDS011;23188;51.188;16.374;2023-07-13T09:18:37;2.20;;;1.80;;
37303;SDS011;23188;51.188;16.374;2023-07-13T09:22:45;1.90;;;1.50;;
37303;SDS011;23188;51.188;16.374;2023-07-13T09:26:50;10.80;;;2.30;;
37303;SDS011;23188;51.188;16.374;2023-07-13T09:35:12;4.70;;;1.50;;
37303;SDS011;23188;51.188;16.374;2023-07-13T09:39:27;3.40;;;2.00;;
37303;SDS011;23188;51.188;16.374;2023-07-13T09:43:33;4.20;;;1.70;;
37303;SDS011;23188;51.188;16.374;2023-07-13T09:47:40;2.30;;;1.60;;
37303;SDS011;23188;51.188;16.374;2023-07-13T09:51:44;1.50;;;1.10;;
37303;SDS011;23188;51.188;16.374;2023-07-13T09:55:47;3.10;;;1.30;;
37303;SDS011;23188;51.188;16.374;2023-07-13T09:59:55;3.00;;;2.10;;
37303;SDS011;23188;51.188;16.374;2023-07-13T10:04:02;4.60;;;2.50;;
37303;SDS011;23188;51.188;16.374;2023-07-13T10:08:23;3.90;;;1.70;;
37303;SDS011;23188;51.188;16.374;2023-07-13T10:12:29;3.10;;;1.60;;
37303;SDS011;23188;51.188;16.374;2023-07-13T10:16:39;4.10;;;2.00;;
37303;SDS011;23188;51.188;16.374;2023-07-13T10:20:46;1.60;;;1.40;;
37303;SDS011;23188;51.188;16.374;2023-07-13T10:24:53;3.40;;;2.10;;
37303;SDS011;23188;51.188;16.374;2023-07-13T10:29:00;2.40;;;1.70;;
37303;SDS011;23188;51.188;16.374;2023-07-13T10:33:10;2.70;;;1.50;;
37303;SDS011;23188;51.188;16.374;2023-07-13T10:37:16;2.30;;;2.20;;
37303;SDS011;23188;51.188;16.374;2023-07-13T10:41:28;3.80;;;2.30;;
37303;SDS011;23188;51.188;16.374;2023-07-13T10:45:34;3.40;;;3.00;;
37303;SDS011;23188;51.188;16.374;2023-07-13T10:49:40;3.80;;;3.00;;
37303;SDS011;23188;51.188;16.374;2023-07-13T10:53:45;4.30;;;2.00;;
37303;SDS011;23188;51.188;16.374;2023-07-13T10:57:49;2.70;;;2.30;;
37303;SDS011;23188;51.188;16.374;2023-07-13T11:01:56;4.80;;;1.90;;
37303;SDS011;23188;51.188;16.374;2023-07-13T11:10:30;8.00;;;2.10;;
37303;SDS011;23188;51.188;16.374;2023-07-13T11:23:09;3.40;;;1.60;;
37303;SDS011;23188;51.188;16.374;2023-07-13T11:27:37;2.80;;;2.10;;
37303;SDS011;23188;51.188;16.374;2023-07-13T11:31:51;7.20;;;2.20;;
37303;SDS011;23188;51.188;16.374;2023-07-13T11:39:59;2.60;;;1.10;;
37303;SDS011;23188;51.188;16.374;2023-07-13T11:44:14;3.00;;;1.80;;
37303;SDS011;23188;51.188;16.374;2023-07-13T11:48:27;12.00;;;2.30;;
37303;SDS011;23188;51.188;16.374;2023-07-13T11:52:36;3.60;;;2.00;;
37303;SDS011;23188;51.188;16.374;2023-07-13T11:56:40;3.10;;;1.60;;
37303;SDS011;23188;51.188;16.374;2023-07-13T12:00:44;3.80;;;1.60;;
37303;SDS011;23188;51.188;16.374;2023-07-13T12:04:48;4.60;;;1.50;;
37303;SDS011;23188;51.188;16.374;2023-07-13T12:08:59;1.80;;;1.60;;
37303;SDS011;23188;51.188;16.374;2023-07-13T12:13:04;4.10;;;1.40;;
37303;SDS011;23188;51.188;16.374;2023-07-13T12:17:18;2.40;;;1.30;;
37303;SDS011;23188;51.188;16.374;2023-07-13T12:21:26;2.60;;;1.30;;
37303;SDS011;23188;51.188;16.374;2023-07-13T12:25:34;4.90;;;1.50;;
37303;SDS011;23188;51.188;16.374;2023-07-13T12:29:39;2.20;;;1.30;;
37303;SDS011;23188;51.188;16.374;2023-07-13T12:33:43;2.70;;;1.60;;
37303;SDS011;23188;51.188;16.374;2023-07-13T12:37:47;1.30;;;0.80;;
37303;SDS011;23188;51.188;16.374;2023-07-13T12:41:51;2.70;;;1.20;;
37303;SDS011;23188;51.188;16.374;2023-07-13T12:46:01;1.60;;;1.10;;
37303;SDS011;23188;51.188;16.374;2023-07-13T12:50:12;1.90;;;0.90;;
37303;SDS011;23188;51.188;16.374;2023-07-13T12:54:21;2.30;;;1.00;;
37303;SDS011;23188;51.188;16.374;2023-07-13T13:02:29;1.10;;;0.90;;
37303;SDS011;23188;51.188;16.374;2023-07-13T13:06:38;5.20;;;0.90;;
37303;SDS011;23188;51.188;16.374;2023-07-13T13:10:44;3.60;;;1.70;;
37303;SDS011;23188;51.188;16.374;2023-07-13T13:14:49;1.50;;;1.20;;
37303;SDS011;23188;51.188;16.374;2023-07-13T13:18:56;1.20;;;0.90;;
37303;SDS011;23188;51.188;16.374;2023-07-13T13:23:02;1.40;;;1.10;;
37303;SDS011;23188;51.188;16.374;2023-07-13T13:27:08;3.50;;;1.60;;
37303;SDS011;23188;51.188;16.374;2023-07-13T13:31:19;4.30;;;1.40;;
37303;SDS011;23188;51.188;16.374;2023-07-13T13:35:23;2.70;;;1.50;;
37303;SDS011;23188;51.188;16.374;2023-07-13T13:39:36;2.70;;;2.00;;
37303;SDS011;23188;51.188;16.374;2023-07-13T13:43:47;1.50;;;1.40;;
37303;SDS011;23188;51.188;16.374;2023-07-13T13:47:51;1.30;;;1.00;;
37303;SDS011;23188;51.188;16.374;2023-07-13T13:51:55;6.40;;;1.60;;
37303;SDS011;23188;51.188;16.374;2023-07-13T13:55:59;1.60;;;1.30;;
37303;SDS011;23188;51.188;16.374;2023-07-13T14:00:02;4.00;;;1.50;;
37303;SDS011;23188;51.188;16.374;2023-07-13T14:04:06;2.20;;;1.90;;
37303;SDS011;23188;51.188;16.374;2023-07-13T14:08:18;3.40;;;1.90;;
37303;SDS011;23188;51.188;16.374;2023-07-13T14:12:23;3.30;;;1.90;;
37303;SDS011;23188;51.188;16.374;2023-07-13T14:16:31;4.00;;;2.60;;
37303;SDS011;23188;51.188;16.374;2023-07-13T14:20:37;3.10;;;2.50;;
37303;SDS011;23188;51.188;16.374;2023-07-13T14:24:40;2.30;;;1.70;;
37303;SDS011;23188;51.188;16.374;2023-07-13T14:28:45;2.80;;;1.50;;
37303;SDS011;23188;51.188;16.374;2023-07-13T14:32:51;2.60;;;1.80;;
37303;SDS011;23188;51.188;16.374;2023-07-13T14:36:55;2.80;;;1.50;;
37303;SDS011;23188;51.188;16.374;2023-07-13T14:40:59;3.50;;;1.50;;
37303;SDS011;23188;51.188;16.374;2023-07-13T14:45:03;1.90;;;1.10;;
37303;SDS011;23188;51.188;16.374;2023-07-13T14:49:13;5.00;;;1.40;;
37303;SDS011;23188;51.188;16.374;2023-07-13T14:53:26;2.50;;;2.00;;
37303;SDS011;23188;51.188;16.374;2023-07-13T14:57:33;5.10;;;1.60;;
37303;SDS011;23188;51.188;16.374;2023-07-13T15:01:37;1.60;;;1.50;;
37303;SDS011;23188;51.188;16.374;2023-07-13T15:05:43;9.60;;;1.70;;
37303;SDS011;23188;51.188;16.374;2023-07-13T15:09:47;1.70;;;1.30;;
37303;SDS011;23188;51.188;16.374;2023-07-13T15:13:50;2.50;;;2.20;;
37303;SDS011;23188;51.188;16.374;2023-07-13T15:17:55;1.50;;;1.40;;
37303;SDS011;23188;51.188;16.374;2023-07-13T15:21:59;2.20;;;1.40;;
37303;SDS011;23188;51.188;16.374;2023-07-13T15:26:03;2.90;;;2.50;;
37303;SDS011;23188;51.188;16.374;2023-07-13T15:30:06;1.60;;;1.50;;
37303;SDS011;23188;51.188;16.374;2023-07-13T15:34:11;5.70;;;1.70;;
37303;SDS011;23188;51.188;16.374;2023-07-13T15:38:18;2.20;;;1.70;;
37303;SDS011;23188;51.188;16.374;2023-07-13T15:42:24;2.30;;;1.70;;
37303;SDS011;23188;51.188;16.374;2023-07-13T15:46:28;2.50;;;1.90;;
37303;SDS011;23188;51.188;16.374;2023-07-13T15:50:32;5.40;;;2.40;;
37303;SDS011;23188;51.188;16.374;2023-07-13T15:54:46;2.20;;;1.40;;
37303;SDS011;23188;51.188;16.374;2023-07-13T15:58:51;2.80;;;2.30;;
37303;SDS011;23188;51.188;16.374;2023-07-13T16:02:56;3.20;;;1.70;;
37303;SDS011;23188;51.188;16.374;2023-07-13T16:07:01;3.00;;;2.00;;
37303;SDS011;23188;51.188;16.374;2023-07-13T16:11:04;2.00;;;1.70;;
37303;SDS011;23188;51.188;16.374;2023-07-13T16:15:17;3.80;;;1.60;;
37303;SDS011;23188;51.188;16.374;2023-07-13T16:19:23;2.80;;;1.60;;
37303;SDS011;23188;51.188;16.374;2023-07-13T16:23:32;1.80;;;1.40;;
37303;SDS011;23188;51.188;16.374;2023-07-13T16:27:36;2.20;;;1.70;;
37303;SDS011;23188;51.188;16.374;2023-07-13T16:31:39;2.60;;;2.10;;
37303;SDS011;23188;51.188;16.374;2023-07-13T16:35:42;2.50;;;2.10;;
37303;SDS011;23188;51.188;16.374;2023-07-13T16:39:47;3.00;;;1.70;;
37303;SDS011;23188;51.188;16.374;2023-07-13T16:43:56;1.80;;;1.40;;
37303;SDS011;23188;51.188;16.374;2023-07-13T16:48:00;2.00;;;1.60;;
37303;SDS011;23188;51.188;16.374;2023-07-13T16:52:05;2.50;;;2.20;;
37303;SDS011;23188;51.188;16.374;2023-07-13T16:56:12;3.50;;;2.30;;
37303;SDS011;23188;51.188;16.374;2023-07-13T17:00:26;10.70;;;3.50;;
37303;SDS011;23188;51.188;16.374;2023-07-13T17:04:32;3.70;;;2.50;;
37303;SDS011;23188;51.188;16.374;2023-07-13T17:08:37;3.20;;;2.50;;
37303;SDS011;23188;51.188;16.374;2023-07-13T17:12:42;3.30;;;2.00;;
37303;SDS011;23188;51.188;16.374;2023-07-13T17:16:46;2.70;;;2.10;;
37303;SDS011;23188;51.188;16.374;2023-07-13T17:20:52;1.70;;;1.60;;
37303;SDS011;23188;51.188;16.374;2023-07-13T17:24:57;2.80;;;2.10;;
37303;SDS011;23188;51.188;16.374;2023-07-13T17:29:04;4.70;;;2.30;;
37303;SDS011;23188;51.188;16.374;2023-07-13T17:37:35;6.20;;;2.10;;
37303;SDS011;23188;51.188;16.374;2023-07-13T17:41:39;3.10;;;1.80;;
37303;SDS011;23188;51.188;16.374;2023-07-13T17:45:45;4.70;;;2.60;;
37303;SDS011;23188;51.188;16.374;2023-07-13T17:49:49;2.00;;;1.60;;
37303;SDS011;23188;51.188;16.374;2023-07-13T17:53:53;4.50;;;2.60;;
37303;SDS011;23188;51.188;16.374;2023-07-13T17:57:59;5.10;;;1.80;;
37303;SDS011;23188;51.188;16.374;2023-07-13T18:02:09;5.20;;;2.00;;
37303;SDS011;23188;51.188;16.374;2023-07-13T18:06:28;5.90;;;3.20;;
37303;SDS011;23188;51.188;16.374;2023-07-13T18:10:35;3.50;;;1.90;;
37303;SDS011;23188;51.188;16.374;2023-07-13T18:14:38;6.50;;;2.80;;
37303;SDS011;23188;51.188;16.374;2023-07-13T18:18:41;4.90;;;2.50;;
37303;SDS011;23188;51.188;16.374;2023-07-13T18:22:45;10.50;;;4.20;;
37303;SDS011;23188;51.188;16.374;2023-07-13T18:26:48;19.50;;;9.20;;
37303;SDS011;23188;51.188;16.374;2023-07-13T18:30:52;19.30;;;13.80;;
37303;SDS011;23188;51.188;16.374;2023-07-13T18:35:02;43.90;;;22.80;;
37303;SDS011;23188;51.188;16.374;2023-07-13T18:39:09;24.60;;;15.00;;
37303;SDS011;23188;51.188;16.374;2023-07-13T18:43:16;18.30;;;12.10;;
37303;SDS011;23188;51.188;16.374;2023-07-13T18:47:20;17.30;;;10.80;;
37303;SDS011;23188;51.188;16.374;2023-07-13T18:51:26;7.00;;;5.40;;
37303;SDS011;23188;51.188;16.374;2023-07-13T18:55:31;9.90;;;5.20;;
37303;SDS011;23188;51.188;16.374;2023-07-13T18:59:35;7.10;;;3.90;;
37303;SDS011;23188;51.188;16.374;2023-07-13T19:03:39;3.30;;;2.90;;
37303;SDS011;23188;51.188;16.374;2023-07-13T19:07:43;4.10;;;3.10;;
37303;SDS011;23188;51.188;16.374;2023-07-13T19:11:47;6.00;;;3.80;;
37303;SDS011;23188;51.188;16.374;2023-07-13T19:15:50;4.70;;;3.20;;
37303;SDS011;23188;51.188;16.374;2023-07-13T19:19:54;27.10;;;9.40;;
37303;SDS011;23188;51.188;16.374;2023-07-13T19:23:57;15.10;;;8.50;;
37303;SDS011;23188;51.188;16.374;2023-07-13T19:32:27;5.00;;;4.30;;
37303;SDS011;23188;51.188;16.374;2023-07-13T19:36:33;4.60;;;3.70;;
37303;SDS011;23188;51.188;16.374;2023-07-13T19:40:37;6.70;;;3.20;;
37303;SDS011;23188;51.188;16.374;2023-07-13T19:44:40;3.60;;;3.20;;
37303;SDS011;23188;51.188;16.374;2023-07-13T19:48:44;8.10;;;5.20;;
37303;SDS011;23188;51.188;16.374;2023-07-13T19:52:48;6.10;;;4.80;;
37303;SDS011;23188;51.188;16.374;2023-07-13T19:56:58;9.40;;;5.20;;
37303;SDS011;23188;51.188;16.374;2023-07-13T20:01:02;8.20;;;3.80;;
37303;SDS011;23188;51.188;16.374;2023-07-13T20:05:05;5.50;;;3.90;;
37303;SDS011;23188;51.188;16.374;2023-07-13T20:09:19;4.90;;;3.00;;
37303;SDS011;23188;51.188;16.374;2023-07-13T20:13:44;6.10;;;3.30;;
37303;SDS011;23188;51.188;16.374;2023-07-13T20:17:49;6.10;;;4.20;;
37303;SDS011;23188;51.188;16.374;2023-07-13T20:21:54;3.60;;;2.70;;
37303;SDS011;23188;51.188;16.374;2023-07-13T20:25:57;5.00;;;2.70;;
37303;SDS011;23188;51.188;16.374;2023-07-13T20:30:01;8.10;;;3.70;;
37303;SDS011;23188;51.188;16.374;2023-07-13T20:34:05;6.20;;;2.50;;
37303;SDS011;23188;51.188;16.374;2023-07-13T20:38:11;8.50;;;4.20;;
37303;SDS011;23188;51.188;16.374;2023-07-13T20:42:16;14.00;;;4.80;;
37303;SDS011;23188;51.188;16.374;2023-07-13T20:46:21;7.40;;;3.10;;
37303;SDS011;23188;51.188;16.374;2023-07-13T20:50:25;5.00;;;3.40;;
37303;SDS011;23188;51.188;16.374;2023-07-13T20:54:32;4.40;;;3.30;;
37303;SDS011;23188;51.188;16.374;2023-07-13T20:58:35;7.30;;;3.30;;
37303;SDS011;23188;51.188;16.374;2023-07-13T21:02:38;4.60;;;3.30;;
37303;SDS011;23188;51.188;16.374;2023-07-13T21:06:41;6.60;;;3.20;;
37303;SDS011;23188;51.188;16.374;2023-07-13T21:10:44;6.80;;;2.20;;
37303;SDS011;23188;51.188;16.374;2023-07-13T21:14:49;4.70;;;2.80;;
37303;SDS011;23188;51.188;16.374;2023-07-13T21:18:53;4.30;;;3.50;;
37303;SDS011;23188;51.188;16.374;2023-07-13T21:22:57;7.70;;;2.90;;
37303;SDS011;23188;51.188;16.374;2023-07-13T21:27:00;10.20;;;3.60;;
37303;SDS011;23188;51.188;16.374;2023-07-13T21:31:06;8.80;;;5.10;;
37303;SDS011;23188;51.188;16.374;2023-07-13T21:35:31;9.80;;;4.80;;
37303;SDS011;23188;51.188;16.374;2023-07-13T21:39:41;5.90;;;3.80;;
37303;SDS011;23188;51.188;16.374;2023-07-13T21:43:45;7.40;;;4.80;;
37303;SDS011;23188;51.188;16.374;2023-07-13T21:47:48;11.50;;;5.40;;
37303;SDS011;23188;51.188;16.374;2023-07-13T21:51:53;12.80;;;5.50;;
37303;SDS011;23188;51.188;16.374;2023-07-13T21:55:57;7.70;;;4.60;;
37303;SDS011;23188;51.188;16.374;2023-07-13T22:00:02;9.90;;;4.30;;
37303;SDS011;23188;51.188;16.374;2023-07-13T22:04:08;8.40;;;4.10;;
37303;SDS011;23188;51.188;16.374;2023-07-13T22:08:15;14.00;;;6.70;;
37303;SDS011;23188;51.188;16.374;2023-07-13T22:12:19;15.50;;;5.20;;
37303;SDS011;23188;51.188;16.374;2023-07-13T22:16:23;8.90;;;5.40;;
37303;SDS011;23188;51.188;16.374;2023-07-13T22:20:28;6.00;;;5.10;;
37303;SDS011;23188;51.188;16.374;2023-07-13T22:24:31;5.90;;;4.80;;
37303;SDS011;23188;51.188;16.374;2023-07-13T22:28:35;14.60;;;5.40;;
37303;SDS011;23188;51.188;16.374;2023-07-13T22:32:38;10.70;;;6.20;;
37303;SDS011;23188;51.188;16.374;2023-07-13T22:36:41;9.70;;;5.00;;
37303;SDS011;23188;51.188;16.374;2023-07-13T22:40:45;8.40;;;5.50;;
37303;SDS011;23188;51.188;16.374;2023-07-13T22:44:48;6.60;;;4.90;;
37303;SDS011;23188;51.188;16.374;2023-07-13T22:48:55;7.60;;;5.40;;
37303;SDS011;23188;51.188;16.374;2023-07-13T22:53:00;9.80;;;5.40;;
37303;SDS011;23188;51.188;16.374;2023-07-13T22:57:03;13.50;;;6.60;;
37303;SDS011;23188;51.188;16.374;2023-07-13T23:01:09;16.80;;;5.40;;
37303;SDS011;23188;51.188;16.374;2023-07-13T23:05:18;11.30;;;5.70;;
37303;SDS011;23188;51.188;16.374;2023-07-13T23:09:23;11.60;;;6.00;;
37303;SDS011;23188;51.188;16.374;2023-07-13T23:13:28;9.60;;;6.20;;
37303;SDS011;23188;51.188;16.374;2023-07-13T23:17:31;19.30;;;7.60;;
37303;SDS011;23188;51.188;16.374;2023-07-13T23:21:34;11.60;;;5.90;;
37303;SDS011;23188;51.188;16.374;2023-07-13T23:25:38;10.90;;;6.20;;
37303;SDS011;23188;51.188;16.374;2023-07-13T23:29:41;18.40;;;7.80;;
37303;SDS011;23188;51.188;16.374;2023-07-13T23:33:43;27.10;;;7.00;;
37303;SDS011;23188;51.188;16.374;2023-07-13T23:37:46;18.30;;;6.40;;
37303;SDS011;23188;51.188;16.374;2023-07-13T23:41:50;12.10;;;7.60;;
37303;SDS011;23188;51.188;16.374;2023-07-13T23:45:53;12.90;;;6.40;;
37303;SDS011;23188;51.188;16.374;2023-07-13T23:49:55;17.10;;;7.80;;
37303;SDS011;23188;51.188;16.374;2023-07-13T23:54:08;17.90;;;7.40;;
37303;SDS011;23188;51.188;16.374;2023-07-13T23:58:14;10.80;;;5.40;;
